Time;durP1;ratioP1;P1;durP2;ratioP2;P2;SDS_P1;SDS_P2;PMS_P1;PMS_P2;Temp;Humidity;BMP_temperature;BMP_pressure;BME280_temperature;BME280_humidity;BME280_pressure;Samples;Min_cycle;Max_cycle;Signal;HPM_P1;HPM_P2
2022/05/03 00:00:15;;;;;;;0.88;0.70;;;20.60;47.90;;;;;;6268784;28;20040;-71
2022/05/03 00:03:24;;;;;;;0.80;0.60;;;20.60;47.90;;;;;;6268629;28;20053;-70
2022/05/03 00:06:40;;;;;;;1.10;0.68;;;20.60;47.90;;;;;;6268821;28;20472;-68
2022/05/03 00:10:04;;;;;;;0.95;0.70;;;20.60;48.00;;;;;;6268134;28;20057;-69
2022/05/03 00:13:11;;;;;;;1.83;1.00;;;20.50;47.80;;;;;;6250708;28;20032;-70
2022/05/03 00:16:13;;;;;;;2.30;0.80;;;20.60;47.90;;;;;;6250236;28;20047;-71
2022/05/03 00:19:14;;;;;;;1.35;0.88;;;20.60;47.90;;;;;;6268293;28;20083;-70
2022/05/03 00:22:15;;;;;;;1.30;0.88;;;20.60;47.90;;;;;;6267328;28;20029;-71
2022/05/03 00:25:16;;;;;;;0.80;0.63;;;20.60;48.00;;;;;;6268180;28;20029;-71
2022/05/03 00:28:19;;;;;;;1.10;0.80;;;20.50;47.90;;;;;;6267830;28;20025;-70
2022/05/03 00:31:22;;;;;;;0.88;0.60;;;20.60;48.00;;;;;;6268170;28;20033;-70
2022/05/03 00:34:23;;;;;;;1.10;0.80;;;20.60;48.00;;;;;;6249201;28;20070;-71
2022/05/03 00:37:24;;;;;;;0.88;0.70;;;20.60;48.00;;;;;;6250500;28;20028;-70
2022/05/03 00:40:25;;;;;;;0.80;0.70;;;20.60;48.00;;;;;;6249798;28;20281;-70
2022/05/03 00:44:01;;;;;;;1.00;0.77;;;20.60;48.00;;;;;;6249957;28;20056;-70
2022/05/03 00:47:07;;;;;;;0.82;0.70;;;20.60;48.00;;;;;;6249596;28;20033;-71
2022/05/03 00:50:28;;;;;;;0.70;0.68;;;20.60;48.10;;;;;;6267548;28;20108;-70
2022/05/03 00:53:34;;;;;;;0.77;0.75;;;20.50;48.00;;;;;;6267458;28;20017;-71
2022/05/03 00:57:06;;;;;;;1.27;0.70;;;20.50;48.00;;;;;;6267656;28;20021;-71
2022/05/03 01:00:08;;;;;;;0.90;0.80;;;20.50;48.00;;;;;;6267339;28;20578;-71
2022/05/03 01:03:43;;;;;;;0.75;0.75;;;20.60;48.10;;;;;;6267402;28;20017;-71
2022/05/03 01:06:43;;;;;;;1.05;0.75;;;20.50;48.00;;;;;;6265769;28;20022;-71
2022/05/03 01:10:13;;;;;;;0.80;0.65;;;20.50;48.00;;;;;;6266932;28;20423;-71
2022/05/03 01:13:14;;;;;;;0.85;0.60;;;20.50;48.00;;;;;;6267338;28;20541;-71
2022/05/03 01:16:26;;;;;;;1.75;0.80;;;20.50;48.10;;;;;;6265730;28;20040;-71
2022/05/03 01:19:59;;;;;;;1.25;0.80;;;20.50;48.10;;;;;;6248959;28;20055;-70
2022/05/03 01:23:18;;;;;;;0.65;0.60;;;20.50;48.10;;;;;;6267042;28;20637;-70
2022/05/03 01:26:39;;;;;;;1.02;0.80;;;20.50;48.20;;;;;;6266756;28;20107;-72
2022/05/03 01:29:43;;;;;;;0.63;0.60;;;20.50;48.10;;;;;;6265002;28;20032;-70
2022/05/03 01:32:45;;;;;;;1.23;0.93;;;20.50;48.20;;;;;;6242159;28;20484;-71
2022/05/03 01:35:51;;;;;;;0.95;0.52;;;20.50;48.20;;;;;;6242319;28;20025;-70
2022/05/03 01:39:17;;;;;;;1.00;0.90;;;20.50;48.20;;;;;;6247683;28;20073;-70
2022/05/03 01:42:55;;;;;;;1.95;0.70;;;20.50;48.30;;;;;;6263635;28;20381;-70
2022/05/03 01:46:14;;;;;;;1.05;0.90;;;20.50;48.20;;;;;;6248788;28;20044;-70
2022/05/03 01:53:23;;;;;;;1.35;0.70;;;20.50;48.30;;;;;;6266897;28;20403;-71
2022/05/03 01:57:07;;;;;;;0.90;0.75;;;20.50;48.30;;;;;;6239603;28;20491;-70
2022/05/03 02:00:10;;;;;;;1.48;0.90;;;20.50;48.40;;;;;;6266803;28;20495;-71
2022/05/03 02:03:30;;;;;;;0.93;0.82;;;20.50;48.30;;;;;;6266328;28;20450;-70
2022/05/03 02:06:55;;;;;;;2.42;1.02;;;20.50;48.30;;;;;;6248506;28;20033;-70
2022/05/03 02:10:06;;;;;;;0.70;0.70;;;20.50;48.40;;;;;;6266121;28;20107;-71
2022/05/03 02:17:31;;;;;;;0.90;0.80;;;20.50;48.40;;;;;;6232023;28;20045;-71
2022/05/03 02:20:46;;;;;;;0.85;0.77;;;20.50;48.40;;;;;;6264965;28;20021;-70
2022/05/03 02:24:01;;;;;;;0.85;0.85;;;20.50;48.40;;;;;;6266161;28;20648;-71
2022/05/03 02:27:09;;;;;;;1.17;0.70;;;20.50;48.50;;;;;;6248411;28;20027;-71
2022/05/03 02:30:12;;;;;;;1.08;0.80;;;20.50;48.50;;;;;;6266107;28;20025;-70
2022/05/03 02:33:37;;;;;;;1.08;0.90;;;20.50;48.50;;;;;;6265806;28;20025;-71
2022/05/03 02:36:54;;;;;;;1.05;0.95;;;20.50;48.50;;;;;;6248297;28;20021;-70
2022/05/03 02:40:02;;;;;;;1.38;0.70;;;20.50;48.50;;;;;;6248720;28;20040;-70
2022/05/03 02:43:03;;;;;;;0.75;0.70;;;20.50;48.50;;;;;;6248092;28;20025;-70
2022/05/03 02:46:10;;;;;;;1.60;0.82;;;20.50;48.50;;;;;;6251952;28;20030;-71
2022/05/03 02:49:35;;;;;;;1.63;0.90;;;20.50;48.50;;;;;;6270441;28;20036;-70
2022/05/03 02:52:42;;;;;;;1.25;0.70;;;20.50;48.50;;;;;;6252336;28;20025;-70
2022/05/03 02:55:55;;;;;;;1.70;0.73;;;20.50;48.50;;;;;;6270265;28;20116;-70
2022/05/03 02:59:21;;;;;;;1.17;0.77;;;20.50;48.50;;;;;;6252406;28;20024;-71
2022/05/03 03:02:43;;;;;;;1.42;0.80;;;20.50;48.60;;;;;;6270173;28;20022;-71
2022/05/03 03:05:49;;;;;;;0.80;0.70;;;20.50;48.60;;;;;;6270120;28;20108;-70
2022/05/03 03:08:55;;;;;;;0.70;0.70;;;20.50;48.60;;;;;;6269534;28;20863;-70
2022/05/03 03:12:35;;;;;;;1.75;0.90;;;20.50;48.60;;;;;;6252088;28;20032;-71
2022/05/03 03:15:40;;;;;;;0.60;0.60;;;20.50;48.60;;;;;;6187165;28;20037;-71
2022/05/03 03:18:42;;;;;;;1.58;0.85;;;20.50;48.70;;;;;;6249084;28;20021;-70
2022/05/03 03:21:47;;;;;;;0.90;0.70;;;20.50;48.70;;;;;;6269783;28;20028;-71
2022/05/03 03:24:50;;;;;;;0.85;0.65;;;20.50;48.70;;;;;;6269830;28;20057;-71
2022/05/03 03:27:53;;;;;;;1.15;0.75;;;20.50;48.70;;;;;;6269845;28;20523;-70
2022/05/03 03:30:55;;;;;;;0.68;0.63;;;20.50;48.80;;;;;;6251350;28;20033;-71
2022/05/03 03:33:57;;;;;;;1.15;0.80;;;20.50;48.70;;;;;;6268426;28;20025;-71
2022/05/03 03:37:01;;;;;;;0.88;0.68;;;20.50;48.70;;;;;;6251566;28;20190;-71
2022/05/03 03:40:03;;;;;;;0.75;0.70;;;20.50;48.70;;;;;;6269277;28;20051;-70
2022/05/03 03:43:04;;;;;;;1.35;0.85;;;20.50;48.70;;;;;;6269119;28;20025;-71
2022/05/03 03:46:05;;;;;;;3.30;0.95;;;20.50;48.70;;;;;;6251184;28;20025;-71
2022/05/03 03:49:06;;;;;;;1.50;0.93;;;20.50;48.80;;;;;;6250912;28;20121;-71
2022/05/03 03:52:11;;;;;;;1.00;0.88;;;20.50;48.80;;;;;;6268326;28;20029;-71
2022/05/03 03:55:12;;;;;;;1.13;0.80;;;20.50;48.80;;;;;;6268637;28;20025;-71
2022/05/03 03:58:14;;;;;;;0.90;0.70;;;20.50;48.80;;;;;;6268865;28;20054;-71
2022/05/03 04:01:15;;;;;;;0.65;0.65;;;20.40;48.70;;;;;;6268880;28;20025;-71
2022/05/03 04:04:17;;;;;;;0.93;0.80;;;20.40;48.70;;;;;;6250694;28;20083;-71
2022/05/03 04:07:18;;;;;;;0.88;0.80;;;20.50;48.90;;;;;;6268819;28;20451;-71
2022/05/03 04:10:19;;;;;;;1.05;0.95;;;20.50;48.90;;;;;;6268379;28;20166;-71
2022/05/03 04:13:20;;;;;;;0.80;0.80;;;20.50;48.90;;;;;;6250466;28;20532;-71
2022/05/03 04:16:21;;;;;;;0.68;0.68;;;20.50;48.80;;;;;;6268228;28;20654;-71
2022/05/03 04:19:22;;;;;;;1.20;0.90;;;20.50;48.90;;;;;;6268442;28;20057;-71
2022/05/03 04:22:28;;;;;;;1.17;0.90;;;20.50;48.90;;;;;;6250060;28;20017;-70
2022/05/03 04:25:28;;;;;;;0.90;0.75;;;20.40;48.80;;;;;;6250254;28;20029;-71
2022/05/03 04:28:29;;;;;;;1.00;0.70;;;20.50;49.00;;;;;;6250331;28;20031;-70
2022/05/03 04:31:34;;;;;;;0.80;0.60;;;20.50;49.00;;;;;;6252507;28;20045;-70
2022/05/03 04:34:34;;;;;;;;;;;20.50;49.00;;;;;;6243523;28;20553;-71
2022/05/03 04:37:35;;;;;;;1.33;1.00;;;20.50;49.10;;;;;;6242511;28;19905;-71
2022/05/03 04:40:35;;;;;;;1.02;0.93;;;20.50;49.30;;;;;;6243320;28;20566;-70
2022/05/03 04:43:36;;;;;;;0.70;0.70;;;20.50;49.10;;;;;;6243327;28;20424;-71
2022/05/03 04:46:37;;;;;;;0.93;0.80;;;20.50;49.00;;;;;;6242910;28;20044;-71
2022/05/03 04:49:37;;;;;;;0.68;0.55;;;20.50;49.00;;;;;;6243281;28;20095;-71
2022/05/03 04:52:38;;;;;;;0.88;0.70;;;20.50;49.00;;;;;;6257228;28;20032;-71
2022/05/03 04:55:39;;;;;;;0.75;0.60;;;20.50;49.70;;;;;;6249914;28;20158;-70
2022/05/03 04:58:39;;;;;;;1.08;0.80;;;20.50;49.00;;;;;;6250020;28;20017;-70
2022/05/03 05:01:40;;;;;;;1.48;0.90;;;20.40;49.00;;;;;;6249644;28;20074;-71
2022/05/03 05:04:41;;;;;;;1.05;0.80;;;20.50;49.00;;;;;;6249500;28;20059;-71
2022/05/03 05:07:41;;;;;;;1.95;0.57;;;20.50;49.10;;;;;;6266758;28;20033;-71
2022/05/03 05:10:42;;;;;;;0.75;0.70;;;20.40;49.10;;;;;;6267385;28;20036;-71
2022/05/03 05:13:42;;;;;;;0.77;0.70;;;20.50;49.10;;;;;;6249586;28;20483;-71
2022/05/03 05:16:44;;;;;;;0.70;0.70;;;20.50;49.10;;;;;;6249319;28;20116;-71
2022/05/03 05:19:45;;;;;;;1.52;0.73;;;20.50;49.00;;;;;;6266997;28;20029;-69
2022/05/03 05:22:46;;;;;;;0.85;0.85;;;20.40;49.00;;;;;;6249349;28;20028;-70
2022/05/03 05:25:48;;;;;;;1.55;0.90;;;20.50;49.00;;;;;;6266089;28;20035;-70
2022/05/03 05:28:48;;;;;;;1.77;0.93;;;20.50;49.00;;;;;;6267330;28;20032;-70
2022/05/03 05:31:49;;;;;;;0.80;0.70;;;20.50;49.10;;;;;;6266804;28;20029;-71
2022/05/03 05:34:49;;;;;;;1.33;0.85;;;20.50;49.00;;;;;;6266758;28;20056;-70
2022/05/03 05:37:50;;;;;;;1.05;0.70;;;20.50;49.00;;;;;;6266914;28;20443;-71
2022/05/03 05:40:52;;;;;;;0.73;0.70;;;20.50;49.00;;;;;;6266939;28;20025;-70
2022/05/03 05:43:52;;;;;;;0.65;0.52;;;20.50;49.00;;;;;;6266902;28;20368;-70
2022/05/03 05:46:53;;;;;;;0.73;0.70;;;20.50;49.00;;;;;;6248934;28;20060;-71
2022/05/03 05:49:54;;;;;;;1.00;0.70;;;20.50;49.10;;;;;;6248783;28;20032;-70
2022/05/03 05:56:14;;;;;;;0.70;0.70;;;20.50;49.00;;;;;;6259570;28;20045;-71
2022/05/03 05:59:14;;;;;;;1.20;0.90;;;20.50;49.00;;;;;;6249605;28;20041;-71
2022/05/03 06:02:15;;;;;;;0.70;0.70;;;20.50;49.10;;;;;;6245790;28;20577;-71
2022/05/03 06:05:16;;;;;;;1.27;0.90;;;20.50;49.00;;;;;;6227326;28;20021;-71
2022/05/03 06:08:17;;;;;;;1.95;0.73;;;20.50;49.00;;;;;;6260061;28;20045;-70
2022/05/03 06:11:18;;;;;;;1.17;0.80;;;20.50;49.00;;;;;;6240903;28;20059;-70
2022/05/03 06:14:18;;;;;;;1.00;0.80;;;20.50;49.00;;;;;;6254880;28;20032;-71
2022/05/03 06:17:19;;;;;;;1.80;0.90;;;20.50;49.00;;;;;;6251727;28;20025;-71
2022/05/03 06:20:20;;;;;;;0.98;0.80;;;20.50;49.00;;;;;;6265163;28;20364;-71
2022/05/03 06:23:20;;;;;;;0.70;0.50;;;20.50;49.00;;;;;;6274202;28;20017;-71
2022/05/03 06:26:21;;;;;;;1.45;0.52;;;20.50;48.90;;;;;;6273855;28;20044;-70
2022/05/03 06:29:22;;;;;;;0.60;0.60;;;20.50;49.00;;;;;;6256455;28;20033;-70
2022/05/03 06:32:22;;;;;;;1.13;0.70;;;20.50;49.00;;;;;;6251666;28;20129;-71
2022/05/03 06:35:23;;;;;;;2.88;0.80;;;20.50;49.40;;;;;;6256000;28;20029;-70
2022/05/03 06:38:23;;;;;;;1.38;0.77;;;20.70;49.20;;;;;;6274030;28;20433;-72
2022/05/03 06:41:24;;;;;;;1.63;0.70;;;20.80;49.70;;;;;;6255956;28;20018;-71
2022/05/03 06:44:24;;;;;;;1.58;0.68;;;20.80;49.00;;;;;;6273672;28;20021;-71
2022/05/03 06:47:27;;;;;;;4.53;0.60;;;20.80;49.10;;;;;;6255673;28;20025;-70
2022/05/03 06:50:31;;;;;;;2.90;0.70;;;20.80;49.70;;;;;;6255249;28;20028;-71
2022/05/03 06:53:32;;;;;;;4.60;0.90;;;20.70;49.40;;;;;;6255024;28;20124;-71
2022/05/03 06:56:35;;;;;;;1.35;0.75;;;20.70;49.00;;;;;;6255098;28;20024;-71
2022/05/03 06:59:36;;;;;;;8.93;1.70;;;20.80;48.90;;;;;;6272722;28;20017;-70
2022/05/03 07:02:37;;;;;;;33.25;6.78;;;20.80;49.30;;;;;;6255549;28;20390;-71
2022/05/03 07:05:38;;;;;;;41.13;8.70;;;20.80;49.30;;;;;;6272783;28;20032;-71
2022/05/03 07:08:39;;;;;;;50.78;17.65;;;20.80;49.40;;;;;;6254879;28;20151;-71
2022/05/03 07:11:39;;;;;;;71.65;17.48;;;20.90;49.90;;;;;;6254599;28;20565;-70
2022/05/03 07:14:40;;;;;;;73.07;21.08;;;20.90;50.00;;;;;;6273270;28;20025;-72
2022/05/03 07:24:19;;;;;;;70.53;19.30;;;21.00;49.20;;;;;;6262247;28;20026;-70
2022/05/03 07:27:20;;;;;;;69.78;20.17;;;21.10;49.20;;;;;;6247460;28;20080;-70
2022/05/03 07:30:21;;;;;;;55.17;20.00;;;21.10;49.30;;;;;;6253221;28;20033;-71
2022/05/03 07:33:22;;;;;;;59.28;17.92;;;21.10;49.50;;;;;;6272016;28;20047;-70
2022/05/03 07:36:23;;;;;;;53.10;19.05;;;21.20;48.90;;;;;;6254339;28;20029;-70
2022/05/03 07:39:24;;;;;;;49.80;15.13;;;21.20;48.70;;;;;;6253949;28;20113;-70
2022/05/03 07:42:24;;;;;;;40.53;15.25;;;21.20;48.60;;;;;;6272069;28;20032;-69
2022/05/03 07:45:25;;;;;;;42.38;15.50;;;21.20;48.60;;;;;;6271891;28;20381;-69
2022/05/03 07:48:25;;;;;;;39.85;15.75;;;21.30;48.60;;;;;;6272103;28;20056;-69
2022/05/03 07:51:26;;;;;;;35.63;14.57;;;21.30;48.60;;;;;;6271456;28;20021;-70
2022/05/03 07:54:27;;;;;;;42.70;14.32;;;21.20;48.80;;;;;;6270428;28;20021;-72
2022/05/03 07:57:27;;;;;;;38.20;14.07;;;21.10;48.90;;;;;;6247033;28;20049;-72
2022/05/03 08:00:28;;;;;;;39.33;15.13;;;21.10;49.00;;;;;;6271423;28;20029;-72
2022/05/03 08:03:28;;;;;;;34.42;13.95;;;21.00;49.80;;;;;;6273195;28;20686;-72
2022/05/03 08:06:29;;;;;;;37.33;14.43;;;21.00;49.20;;;;;;6254872;28;20033;-73
2022/05/03 08:09:30;;;;;;;38.47;13.82;;;20.90;49.20;;;;;;6271528;28;20049;-71
2022/05/03 08:12:30;;;;;;;32.40;11.98;;;20.90;48.60;;;;;;6271501;28;20093;-72
2022/05/03 08:15:31;;;;;;;19.08;8.23;;;20.90;47.90;;;;;;6255304;28;20032;-72
2022/05/03 08:18:32;;;;;;;23.63;9.02;;;20.90;47.20;;;;;;6271819;28;20025;-72
2022/05/03 08:21:35;;;;;;;16.88;7.93;;;20.80;47.20;;;;;;6254501;28;20021;-72
2022/05/03 08:24:36;;;;;;;20.02;8.73;;;20.80;47.20;;;;;;6254608;28;20021;-72
2022/05/03 08:27:40;;;;;;;19.27;8.50;;;20.80;47.20;;;;;;6254473;28;20431;-71
2022/05/03 08:30:41;;;;;;;18.17;7.05;;;20.80;46.80;;;;;;6254601;28;20075;-71
2022/05/03 08:33:44;;;;;;;16.05;6.70;;;20.80;46.80;;;;;;6253983;28;20033;-74
2022/05/03 08:42:01;;;;;;;12.30;6.07;;;20.80;46.40;;;;;;6252769;28;20032;-73
2022/05/03 08:43:25;;;;;;;12.48;5.75;;;20.70;46.80;;;;;;6270239;28;20037;-74
2022/05/03 08:46:29;;;;;;;16.15;6.65;;;20.70;47.00;;;;;;6270392;28;20443;-72
2022/05/03 08:49:43;;;;;;;15.13;5.82;;;20.70;46.90;;;;;;6244803;28;20068;-73
2022/05/03 08:52:49;;;;;;;12.75;6.22;;;20.70;47.00;;;;;;6260027;28;20141;-72
2022/05/03 08:55:51;;;;;;;13.45;5.93;;;20.70;47.10;;;;;;6252474;28;20036;-72
2022/05/03 08:58:52;;;;;;;9.27;5.40;;;20.70;47.30;;;;;;6269949;28;20033;-72
2022/05/03 09:01:53;;;;;;;14.02;5.80;;;20.70;47.40;;;;;;6270288;28;20090;-72
2022/05/03 09:04:54;;;;;;;14.93;5.88;;;20.70;47.50;;;;;;6270085;28;20033;-71
2022/05/03 09:07:57;;;;;;;13.88;5.45;;;20.70;47.90;;;;;;6269804;28;20032;-72
2022/05/03 09:10:57;;;;;;;12.73;5.95;;;20.90;48.00;;;;;;6269997;28;20044;-70
2022/05/03 09:13:58;;;;;;;13.52;5.32;;;20.90;47.50;;;;;;6269717;28;20029;-71
2022/05/03 09:17:01;;;;;;;12.38;5.93;;;20.90;47.80;;;;;;6252136;28;20032;-71
2022/05/03 09:24:01;;;;;;;19.67;5.93;;;21.00;47.80;;;;;;6261893;28;20033;-71
2022/05/03 09:27:17;;;;;;;13.27;5.65;;;21.10;48.40;;;;;;6245041;28;20028;-71
2022/05/03 09:30:19;;;;;;;13.80;4.50;;;21.10;47.90;;;;;;6250592;28;20025;-71
2022/05/03 09:33:26;;;;;;;13.57;5.68;;;21.20;47.50;;;;;;6251684;28;20036;-72
2022/05/03 09:36:27;;;;;;;10.90;5.10;;;21.20;47.80;;;;;;6269741;28;20021;-72
2022/05/03 09:39:32;;;;;;;13.18;5.05;;;21.10;47.70;;;;;;6269299;28;20456;-73
2022/05/03 09:42:36;;;;;;;10.90;4.95;;;21.00;47.90;;;;;;6269311;28;20151;-73
2022/05/03 09:45:37;;;;;;;8.65;4.38;;;21.00;47.90;;;;;;6269081;28;20518;-73
2022/05/03 09:48:56;;;;;;;8.80;4.72;;;21.00;48.00;;;;;;6268918;28;20021;-73
2022/05/03 09:51:57;;;;;;;11.18;5.25;;;20.90;48.00;;;;;;6269254;28;20017;-73
2022/05/03 09:55:04;;;;;;;8.82;4.57;;;20.90;48.10;;;;;;6255511;28;20054;-73
2022/05/03 09:58:06;;;;;;;8.10;4.25;;;20.90;48.90;;;;;;6274373;28;20099;-73
2022/05/03 10:01:07;;;;;;;9.80;5.05;;;20.90;48.20;;;;;;6274051;28;20566;-73
2022/05/03 10:04:08;;;;;;;9.10;4.57;;;20.90;48.50;;;;;;6274427;28;20025;-73
2022/05/03 10:07:09;;;;;;;8.85;4.43;;;20.80;48.40;;;;;;6256262;28;20123;-73
2022/05/03 10:10:12;;;;;;;9.82;4.65;;;20.80;48.60;;;;;;6273909;28;20044;-72
2022/05/03 10:13:15;;;;;;;8.25;3.85;;;20.80;48.60;;;;;;6273976;28;20104;-73
2022/05/03 10:22:57;;;;;;;6.00;4.00;;;20.90;49.60;;;;;;6274185;28;20060;-71
2022/05/03 10:25:58;;;;;;;7.15;3.55;;;21.00;48.40;;;;;;6273640;28;20433;-71
2022/05/03 10:29:09;;;;;;;8.85;4.20;;;21.10;48.10;;;;;;6274024;28;20036;-72
2022/05/03 10:32:10;;;;;;;7.13;4.03;;;21.20;48.10;;;;;;6255665;28;20068;-73
2022/05/03 10:35:43;;;;;;;6.10;3.42;;;21.20;48.30;;;;;;6255695;28;20518;-71
2022/05/03 10:38:46;;;;;;;6.97;3.60;;;21.20;48.10;;;;;;6222981;28;20029;-71
2022/05/03 10:42:11;;;;;;;7.57;3.55;;;21.10;48.30;;;;;;6273215;28;20013;-71
2022/05/03 10:45:13;;;;;;;6.43;3.40;;;21.10;48.40;;;;;;6257319;28;20100;-73
2022/05/03 10:48:25;;;;;;;7.50;3.33;;;21.00;48.20;;;;;;6259461;28;20033;-72
2022/05/03 10:51:25;;;;;;;4.75;3.03;;;21.10;48.20;;;;;;6234811;28;20074;-72
2022/05/03 10:54:26;;;;;;;8.02;3.15;;;21.20;48.40;;;;;;6255289;28;20657;-70
2022/05/03 10:57:27;;;;;;;5.03;2.90;;;21.30;48.30;;;;;;6272757;28;20028;-70
2022/05/03 11:01:05;;;;;;;4.97;2.60;;;21.30;48.10;;;;;;6273006;28;20017;-71
2022/05/03 11:04:05;;;;;;;7.45;3.25;;;21.30;48.00;;;;;;6272556;28;20027;-71
2022/05/03 11:07:06;;;;;;;5.50;3.05;;;21.20;47.90;;;;;;6263641;28;20029;-72
2022/05/03 11:10:39;;;;;;;6.28;3.25;;;21.20;48.30;;;;;;6243606;28;20076;-72
2022/05/03 11:13:41;;;;;;;6.20;2.70;;;21.10;48.20;;;;;;6272706;28;20059;-72
2022/05/03 11:16:43;;;;;;;4.28;2.50;;;21.20;48.30;;;;;;6272532;28;20036;-73
2022/05/03 11:19:46;;;;;;;5.38;3.28;;;21.20;48.20;;;;;;6272404;28;20075;-71
2022/05/03 11:22:46;;;;;;;4.40;2.50;;;21.30;48.40;;;;;;6254364;28;20074;-71
2022/05/03 11:25:48;;;;;;;4.53;2.53;;;21.20;48.20;;;;;;6248376;28;20093;-73
2022/05/03 11:28:50;;;;;;;4.95;2.40;;;21.20;48.40;;;;;;6252568;28;20553;-71
2022/05/03 11:31:52;;;;;;;3.92;2.45;;;21.10;48.30;;;;;;6271346;28;20044;-72
2022/05/03 11:34:59;;;;;;;8.02;2.92;;;21.10;48.30;;;;;;6270872;28;20037;-73
2022/05/03 11:38:02;;;;;;;5.10;2.25;;;21.10;48.40;;;;;;6271254;28;20648;-72
2022/05/03 11:41:04;;;;;;;3.17;2.22;;;21.10;48.40;;;;;;6271531;28;20024;-71
2022/05/03 11:44:05;;;;;;;7.10;2.33;;;21.10;48.60;;;;;;6253337;28;20013;-71
2022/05/03 11:47:09;;;;;;;4.70;2.55;;;21.20;48.60;;;;;;6253134;28;20124;-71
2022/05/03 11:50:12;;;;;;;2.78;2.17;;;21.10;48.50;;;;;;6271065;28;20376;-72
2022/05/03 11:56:46;;;;;;;2.88;1.98;;;21.10;48.50;;;;;;6233603;28;20041;-72
2022/05/03 11:59:49;;;;;;;3.70;2.30;;;21.10;48.50;;;;;;6270513;28;20040;-71
2022/05/03 12:02:50;;;;;;;4.25;2.20;;;21.10;48.50;;;;;;6253373;28;20363;-71
2022/05/03 12:06:04;;;;;;;3.30;2.25;;;21.00;48.40;;;;;;6270995;28;20021;-72
2022/05/03 12:09:06;;;;;;;2.80;1.92;;;21.00;48.40;;;;;;6270385;28;20071;-71
2022/05/03 12:15:28;;;;;;;3.72;2.10;;;21.00;48.50;;;;;;6270378;28;20108;-72
2022/05/03 12:18:43;;;;;;;3.55;1.88;;;21.10;48.60;;;;;;6252340;28;20017;-71
2022/05/03 12:21:44;;;;;;;2.28;1.70;;;21.00;48.50;;;;;;6270421;28;20014;-72
2022/05/03 12:24:48;;;;;;;2.55;1.95;;;21.00;48.50;;;;;;6252278;28;20041;-72
2022/05/03 12:27:48;;;;;;;3.40;2.22;;;21.00;48.50;;;;;;6269956;28;20060;-72
2022/05/03 12:30:57;;;;;;;2.50;1.67;;;21.00;48.50;;;;;;6269780;28;20033;-72
2022/05/03 12:33:59;;;;;;;3.55;2.10;;;21.00;48.60;;;;;;6269929;28;20104;-72
2022/05/03 12:37:04;;;;;;;2.33;1.83;;;21.00;48.50;;;;;;6269762;28;20021;-72
2022/05/03 12:40:05;;;;;;;2.92;2.10;;;21.00;48.50;;;;;;6252079;28;20049;-71
2022/05/03 12:43:13;;;;;;;4.00;2.10;;;21.00;48.50;;;;;;6252159;28;20560;-72
2022/05/03 12:46:14;;;;;;;3.25;1.90;;;21.00;48.50;;;;;;6269564;28;20556;-72
2022/05/03 12:49:15;;;;;;;3.38;2.00;;;21.10;48.60;;;;;;6268912;28;20033;-73
2022/05/03 12:52:16;;;;;;;2.63;1.58;;;21.00;48.50;;;;;;6256129;28;20481;-73
2022/05/03 12:55:19;;;;;;;2.67;1.95;;;21.00;48.60;;;;;;6252217;28;20047;-73
2022/05/03 12:58:22;;;;;;;3.20;2.00;;;21.00;48.70;;;;;;6251491;28;20369;-73
2022/05/03 13:01:23;;;;;;;3.20;2.00;;;21.00;48.70;;;;;;6269731;28;20174;-72
2022/05/03 13:04:25;;;;;;;3.55;1.83;;;21.00;49.20;;;;;;6269477;28;20029;-70
2022/05/03 13:07:26;;;;;;;2.45;1.67;;;21.10;48.50;;;;;;6269262;28;20048;-73
2022/05/03 13:10:27;;;;;;;2.63;1.60;;;21.20;48.60;;;;;;6250794;28;20045;-73
2022/05/03 13:13:28;;;;;;;2.83;1.88;;;21.30;48.70;;;;;;6268041;28;20021;-73
2022/05/03 13:16:29;;;;;;;3.85;2.20;;;21.30;48.60;;;;;;6251069;28;20036;-71
2022/05/03 13:19:32;;;;;;;3.63;2.10;;;21.30;48.40;;;;;;6269019;28;20460;-71
2022/05/03 13:22:33;;;;;;;4.53;2.38;;;21.40;48.60;;;;;;6250958;28;20024;-71
2022/05/03 13:25:34;;;;;;;4.13;2.25;;;21.40;48.40;;;;;;6250579;28;20053;-71
2022/05/03 13:28:35;;;;;;;5.53;2.30;;;21.30;48.50;;;;;;6267978;28;20043;-71
2022/05/03 13:31:36;;;;;;;5.53;2.60;;;21.20;48.70;;;;;;6252499;28;20036;-72
2022/05/03 13:34:36;;;;;;;5.85;2.90;;;21.10;48.70;;;;;;6226345;28;20021;-71
2022/05/03 13:40:57;;;;;;;4.05;2.38;;;21.10;48.70;;;;;;6244474;28;20061;-72
2022/05/03 13:43:58;;;;;;;3.35;2.10;;;21.10;48.80;;;;;;6243898;28;20025;-72
2022/05/03 13:46:58;;;;;;;6.70;3.42;;;21.10;48.80;;;;;;6225794;28;20029;-72
2022/05/03 13:49:59;;;;;;;9.25;3.50;;;21.00;48.70;;;;;;6243710;28;20049;-72
2022/05/03 13:53:00;;;;;;;6.20;2.78;;;21.10;48.80;;;;;;6259740;28;20029;-71
2022/05/03 13:56:01;;;;;;;9.40;3.72;;;21.00;48.70;;;;;;6268327;28;20025;-72
2022/05/03 13:59:03;;;;;;;7.38;3.42;;;21.10;48.80;;;;;;6249996;28;20029;-71
2022/05/03 14:02:10;;;;;;;7.70;3.80;;;21.10;48.90;;;;;;6268403;28;20040;-72
2022/05/03 14:05:11;;;;;;;9.95;4.20;;;21.00;48.70;;;;;;6242243;28;20061;-71
2022/05/03 14:08:13;;;;;;;9.55;4.20;;;21.10;48.80;;;;;;6261449;28;20591;-71
2022/05/03 14:11:14;;;;;;;14.85;4.72;;;21.20;48.70;;;;;;6267984;28;20068;-71
2022/05/03 14:14:15;;;;;;;27.42;8.88;;;21.20;48.40;;;;;;6267768;28;20028;-72
2022/05/03 14:17:16;;;;;;;20.33;8.57;;;21.30;48.20;;;;;;6250082;28;20039;-72
2022/05/03 14:20:18;;;;;;;25.20;7.72;;;21.30;48.20;;;;;;6267863;28;20116;-71
2022/05/03 14:23:19;;;;;;;15.80;6.70;;;21.30;48.10;;;;;;6265739;28;20018;-73
2022/05/03 14:26:19;;;;;;;13.52;6.10;;;21.30;48.40;;;;;;6249582;28;20125;-71
2022/05/03 14:29:20;;;;;;;16.73;5.95;;;21.30;48.70;;;;;;6249860;28;20078;-71
2022/05/03 14:32:21;;;;;;;15.13;6.65;;;21.20;48.70;;;;;;6249139;28;20025;-72
2022/05/03 14:35:21;;;;;;;12.15;5.38;;;21.20;48.70;;;;;;6268027;28;20091;-72
2022/05/03 14:38:22;;;;;;;17.80;7.57;;;21.20;48.80;;;;;;6267139;28;20102;-72
2022/05/03 14:41:23;;;;;;;20.25;7.82;;;21.10;48.80;;;;;;6271183;28;20057;-71
2022/05/03 14:44:24;;;;;;;18.98;7.13;;;21.10;49.50;;;;;;6254518;28;20143;-73
2022/05/03 14:47:25;;;;;;;16.33;7.80;;;21.10;48.80;;;;;;6247554;28;20030;-73
2022/05/03 14:50:25;;;;;;;15.25;6.10;;;21.10;48.90;;;;;;6247626;28;20029;-73
2022/05/03 14:53:26;;;;;;;15.00;6.72;;;21.10;49.00;;;;;;6268756;28;20032;-73
2022/05/03 15:03:05;;;;;;;16.52;6.72;;;21.10;49.10;;;;;;6272488;28;20225;-73
2022/05/03 15:06:05;;;;;;;17.85;6.72;;;21.00;49.00;;;;;;6270284;28;20043;-72
2022/05/03 15:09:07;;;;;;;18.02;7.10;;;21.10;49.20;;;;;;6271837;28;20068;-72
2022/05/03 15:12:08;;;;;;;16.08;6.00;;;21.10;49.00;;;;;;6270442;28;20051;-72
2022/05/03 15:15:12;;;;;;;14.20;6.13;;;21.10;49.10;;;;;;6270531;28;20037;-72
2022/05/03 15:18:12;;;;;;;13.25;5.38;;;21.10;49.20;;;;;;6253796;28;20071;-73
2022/05/03 15:21:13;;;;;;;13.82;5.13;;;21.00;49.20;;;;;;6271962;28;20028;-72
2022/05/03 15:27:33;;;;;;;20.70;7.57;;;21.00;49.30;;;;;;6272081;28;20025;-73
2022/05/03 15:30:34;;;;;;;14.18;5.78;;;21.00;49.30;;;;;;6253372;28;20024;-72
2022/05/03 15:33:34;;;;;;;16.23;6.03;;;21.00;49.30;;;;;;6254006;28;20048;-73
2022/05/03 15:36:35;;;;;;;12.32;5.93;;;21.00;49.30;;;;;;6271140;28;20398;-73
2022/05/03 15:39:36;;;;;;;16.40;6.10;;;21.00;49.40;;;;;;6271029;28;20021;-73
2022/05/03 15:42:37;;;;;;;13.77;6.18;;;21.00;49.40;;;;;;6271306;28;20036;-73
2022/05/03 15:45:40;;;;;;;11.98;5.20;;;20.90;49.30;;;;;;6271101;28;20021;-72
2022/05/03 15:48:41;;;;;;;11.55;4.90;;;20.90;49.40;;;;;;6235469;28;20036;-73
2022/05/03 15:51:41;;;;;;;14.00;5.82;;;20.90;49.40;;;;;;6252141;28;20056;-73
2022/05/03 15:54:42;;;;;;;10.68;5.65;;;20.90;49.40;;;;;;6253145;28;20033;-72
2022/05/03 15:57:44;;;;;;;13.15;5.88;;;20.90;49.40;;;;;;6270418;28;20048;-73
2022/05/03 16:00:45;;;;;;;14.57;5.80;;;20.90;49.50;;;;;;6252995;28;20069;-72
2022/05/03 16:03:48;;;;;;;11.82;5.38;;;20.90;49.50;;;;;;6252967;28;20028;-72
2022/05/03 16:06:49;;;;;;;12.52;5.07;;;20.90;49.50;;;;;;6269704;28;20029;-72
2022/05/03 16:09:50;;;;;;;14.43;5.57;;;20.90;49.50;;;;;;6270499;28;20083;-73
2022/05/03 16:12:50;;;;;;;13.32;5.65;;;20.90;49.60;;;;;;6252371;28;20027;-73
2022/05/03 16:15:51;;;;;;;12.50;5.35;;;20.90;49.60;;;;;;6268504;28;20025;-72
2022/05/03 16:18:51;;;;;;;15.00;6.60;;;20.90;49.60;;;;;;6268411;28;20025;-70
2022/05/03 16:21:53;;;;;;;9.93;4.75;;;20.80;49.60;;;;;;6250323;28;20021;-70
2022/05/03 16:24:54;;;;;;;13.82;6.28;;;20.90;49.70;;;;;;6250031;28;20031;-70
2022/05/03 16:27:55;;;;;;;11.00;5.15;;;20.80;49.60;;;;;;6250069;28;20360;-71
2022/05/03 16:30:56;;;;;;;10.68;5.50;;;20.90;49.70;;;;;;6239274;28;20179;-71
2022/05/03 16:34:00;;;;;;;12.07;5.05;;;20.80;49.70;;;;;;6242941;28;20033;-71
2022/05/03 16:43:39;;;;;;;11.20;5.47;;;20.80;49.70;;;;;;6243016;28;20037;-70
2022/05/03 16:46:40;;;;;;;11.18;5.22;;;20.80;49.70;;;;;;6243380;28;20121;-70
2022/05/03 16:49:42;;;;;;;11.60;5.28;;;20.80;49.70;;;;;;6265965;28;20487;-71
2022/05/03 16:52:43;;;;;;;9.98;4.82;;;20.80;49.70;;;;;;6265792;28;20033;-70